Startpagina
METAR-TAF:

METAR-TAF

Vliegvelden :

Maastricht Aachen Airport

Maastricht Aken, Nederland

breedte: 50-55N, lengte: 005-47E, hoogte: 114 m

Actueel weer

Dit bericht is 38 minuten geleden gemaakt, om 22:55 UTC
Wind 5 kt uit het noordnoordwesten, variërend tussen het noordwesten en het noorden
Temperatuur 12°C
Vochtigheid 82%
Druk 1026 hPa
Zicht 10 km of meer
Weinig wolken op 3400 ft

METAR: EHBK 122255Z AUTO 33005KT 310V010 9999 FEW034 12/09 Q1026

Tijdstip: 01:33 (23:33 UTC)

Verwachting

Dit bericht is 6 uur en het 18 minuten geleden gemaakt, om 17:15 UTC
Verwachting geldig van 12 om 18 UTC tot 13 om 24 UTC
Wind 10 kt uit het noordnoordwesten
Zicht 10 km of meer
geen wolken onder 1500 m en geen cumulonimbus
Wijzigt naar
van 13 om 02 UTC tot 13 om 05 UTC
Wind 3 kt uit het noordnoordoosten

TAF: EHBK 121715Z 1218/1324 33010KT CAVOK BECMG 1302/1305 02003KT

Waarnemingen en weersverwachtingen van meer dan 4000 vliegvelden (METAR en TAF).

De beschikbare stations zijn de gele en rode punten op de kaart.

Ga met uw muis naar het station om de naam te zien.

Klik dan om waarnemingen en weersverwachtingen te zien.

kaart wijzigen: klik op de groene knoppen met een zwart kruis om in te zoomen, op de groene knop met een streepje om uit te zoomen of op de groene pijlen voor aangrenzende kaarten.


METAR-TAF: